Time;durP1;ratioP1;P1;durP2;ratioP2;P2;SDS_P1;SDS_P2;PMS_P1;PMS_P2;Temp;Humidity;BMP_temperature;BMP_pressure;BME280_temperature;BME280_humidity;BME280_pressure;Samples;Min_cycle;Max_cycle;Signal;HPM_P1;HPM_P2
2023/07/11 00:00:26;;;;;;;;;4.00;4.00;;;;;;;;2087256;28;46636;-51
2023/07/11 00:01:26;;;;;;;;;4.50;3.25;;;;;;;;2088584;28;46465;-48
2023/07/11 00:02:27;;;;;;;;;5.50;4.50;;;;;;;;2088652;28;46460;-49
2023/07/11 00:03:27;;;;;;;;;6.50;4.25;;;;;;;;2088160;28;47211;-48
2023/07/11 00:04:27;;;;;;;;;4.25;3.75;;;;;;;;2088360;28;46825;-48
2023/07/11 00:05:27;;;;;;;;;4.75;4.75;;;;;;;;2088584;28;46498;-50
2023/07/11 00:06:28;;;;;;;;;5.75;5.50;;;;;;;;2095298;28;46347;-49
2023/07/11 00:07:28;;;;;;;;;4.25;4.25;;;;;;;;2096030;28;46329;-49
2023/07/11 00:08:29;;;;;;;;;4.00;4.00;;;;;;;;2087929;28;46726;-46
2023/07/11 00:09:29;;;;;;;;;5.50;4.50;;;;;;;;2087963;28;46884;-47
2023/07/11 00:10:29;;;;;;;;;5.50;5.50;;;;;;;;2088100;28;45634;-49
2023/07/11 00:11:29;;;;;;;;;3.75;3.75;;;;;;;;2088050;28;46200;-51
2023/07/11 00:12:30;;;;;;;;;5.00;5.00;;;;;;;;2087025;28;46430;-49
2023/07/11 00:13:30;;;;;;;;;6.25;4.75;;;;;;;;2087617;28;46872;-50
2023/07/11 00:14:30;;;;;;;;;3.75;3.75;;;;;;;;2088210;28;46496;-48
2023/07/11 00:15:30;;;;;;;;;5.25;5.25;;;;;;;;2088595;28;46957;-49
2023/07/11 00:16:31;;;;;;;;;4.00;3.75;;;;;;;;2088881;28;46520;-50
2023/07/11 00:17:31;;;;;;;;;3.50;3.50;;;;;;;;2088035;28;46031;-48
2023/07/11 00:18:31;;;;;;;;;5.00;4.00;;;;;;;;2087118;28;46627;-49
2023/07/11 00:19:45;;;;;;;;;2.50;2.50;;;;;;;;2087986;28;47456;-51
2023/07/11 00:20:46;;;;;;;;;2.20;2.00;;;;;;;;2087262;28;46457;-48
2023/07/11 00:21:46;;;;;;;;;6.00;4.00;;;;;;;;2095140;28;46624;-48
2023/07/11 00:22:46;;;;;;;;;3.25;3.25;;;;;;;;2095510;28;45910;-48
2023/07/11 00:23:47;;;;;;;;;7.00;4.25;;;;;;;;2087810;28;47554;-49
2023/07/11 00:24:48;;;;;;;;;2.25;2.25;;;;;;;;2088362;28;45908;-48
2023/07/11 00:25:48;;;;;;;;;3.20;3.00;;;;;;;;2088031;28;46859;-48
2023/07/11 00:26:48;;;;;;;;;4.50;3.75;;;;;;;;2088143;28;46514;-51
2023/07/11 00:27:48;;;;;;;;;6.00;3.75;;;;;;;;2086786;28;46216;-52
2023/07/11 00:28:48;;;;;;;;;4.25;4.00;;;;;;;;2088307;28;46625;-55
2023/07/11 00:29:50;;;;;;;;;9.25;6.00;;;;;;;;2088188;28;45711;-52
2023/07/11 00:30:50;;;;;;;;;5.40;3.60;;;;;;;;2088552;28;47349;-54
2023/07/11 00:31:50;;;;;;;;;7.25;7.25;;;;;;;;2088324;28;46457;-50
2023/07/11 00:32:50;;;;;;;;;11.25;9.25;;;;;;;;2087538;28;47153;-53
2023/07/11 00:33:51;;;;;;;;;10.75;10.00;;;;;;;;2087028;28;46768;-47
2023/07/11 00:34:51;;;;;;;;;10.75;10.25;;;;;;;;2088136;28;46782;-51
2023/07/11 00:35:52;;;;;;;;;8.75;8.25;;;;;;;;2085932;28;46355;-47
2023/07/11 00:36:52;;;;;;;;;11.00;11.00;;;;;;;;2087600;28;46834;-50
2023/07/11 00:37:52;;;;;;;;;13.00;11.25;;;;;;;;2087982;28;46963;-49
2023/07/11 00:38:52;;;;;;;;;15.50;13.25;;;;;;;;2088189;28;45575;-50
2023/07/11 00:39:53;;;;;;;;;14.75;13.50;;;;;;;;2087611;28;46839;-47
2023/07/11 00:40:53;;;;;;;;;9.25;9.25;;;;;;;;2088137;28;46286;-48
2023/07/11 00:41:53;;;;;;;;;12.75;10.75;;;;;;;;2087999;28;46531;-48
2023/07/11 00:42:54;;;;;;;;;5.25;5.25;;;;;;;;2088511;28;46578;-48
2023/07/11 00:43:54;;;;;;;;;6.75;6.00;;;;;;;;2087874;28;46138;-49
2023/07/11 00:44:54;;;;;;;;;10.25;8.50;;;;;;;;2087910;28;46223;-47
2023/07/11 00:46:04;;;;;;;;;10.00;9.00;;;;;;;;2087683;28;46177;-48
2023/07/11 00:47:05;;;;;;;;;5.60;5.00;;;;;;;;2087921;28;46581;-48
2023/07/11 00:48:05;;;;;;;;;5.75;5.50;;;;;;;;2087838;28;46517;-46
2023/07/11 00:49:06;;;;;;;;;5.75;5.00;;;;;;;;2087558;28;46377;-47
2023/07/11 00:50:07;;;;;;;;;5.60;5.60;;;;;;;;2087940;28;46549;-49
2023/07/11 00:51:10;;;;;;;;;8.40;6.00;;;;;;;;2086575;28;46358;-48
2023/07/11 00:52:11;;;;;;;;;4.00;4.00;;;;;;;;2088036;28;46694;-45
2023/07/11 00:53:11;;;;;;;;;7.75;6.50;;;;;;;;2088027;28;46263;-48
2023/07/11 00:54:14;;;;;;;;;4.50;4.50;;;;;;;;2087990;28;46268;-48
2023/07/11 00:55:14;;;;;;;;;4.00;4.00;;;;;;;;2087133;28;46328;-47
2023/07/11 00:56:17;;;;;;;;;5.50;5.50;;;;;;;;2088196;28;46284;-48
2023/07/11 00:57:18;;;;;;;;;3.40;3.40;;;;;;;;2089380;28;46901;-49
2023/07/11 00:58:19;;;;;;;;;2.60;2.60;;;;;;;;2089206;28;46234;-48
2023/07/11 00:59:21;;;;;;;;;4.40;4.40;;;;;;;;2089325;28;46273;-47
2023/07/11 01:00:22;;;;;;;;;4.80;4.80;;;;;;;;2089544;28;45168;-49
2023/07/11 01:01:23;;;;;;;;;3.75;3.75;;;;;;;;2089785;28;46893;-48
2023/07/11 01:02:25;;;;;;;;;1.80;1.80;;;;;;;;2089451;28;46552;-50
2023/07/11 01:03:25;;;;;;;;;3.40;3.40;;;;;;;;2088976;28;46495;-48
2023/07/11 01:04:26;;;;;;;;;3.00;3.00;;;;;;;;2089413;28;46801;-48
2023/07/11 01:05:26;;;;;;;;;4.00;4.00;;;;;;;;2088881;28;46859;-48
2023/07/11 01:06:28;;;;;;;;;3.50;3.00;;;;;;;;2088882;28;46367;-47
2023/07/11 01:07:34;;;;;;;;;5.00;5.00;;;;;;;;2089118;28;47920;-48
2023/07/11 01:08:34;;;;;;;;;5.20;5.20;;;;;;;;2089196;28;45492;-48
2023/07/11 01:09:35;;;;;;;;;4.00;4.00;;;;;;;;2089053;28;46574;-51
2023/07/11 01:10:35;;;;;;;;;3.00;3.00;;;;;;;;2088887;28;45615;-51
2023/07/11 01:11:52;;;;;;;;;4.00;4.00;;;;;;;;2089312;28;47013;-49
2023/07/11 01:12:58;;;;;;;;;3.20;3.20;;;;;;;;2089865;28;46623;-48
2023/07/11 01:13:58;;;;;;;;;1.80;1.80;;;;;;;;2089556;28;48322;-51
2023/07/11 01:14:58;;;;;;;;;3.75;3.75;;;;;;;;2089393;28;46228;-51
2023/07/11 01:15:59;;;;;;;;;3.50;3.50;;;;;;;;2089300;28;46920;-50
2023/07/11 01:16:59;;;;;;;;;4.00;4.00;;;;;;;;2088849;28;46839;-50
2023/07/11 01:17:59;;;;;;;;;3.00;3.00;;;;;;;;2088982;28;46773;-50
2023/07/11 01:19:00;;;;;;;;;5.00;3.75;;;;;;;;2089102;28;45925;-51
2023/07/11 01:20:02;;;;;;;;;3.25;3.00;;;;;;;;2089128;28;46492;-52
2023/07/11 01:21:04;;;;;;;;;3.80;3.80;;;;;;;;2089284;28;47113;-49
2023/07/11 01:22:04;;;;;;;;;4.00;4.00;;;;;;;;2088976;28;46449;-51
2023/07/11 01:23:04;;;;;;;;;3.50;3.25;;;;;;;;2089128;28;47222;-49
2023/07/11 01:24:05;;;;;;;;;2.00;2.00;;;;;;;;2088078;28;46534;-50
2023/07/11 01:25:08;;;;;;;;;2.50;2.50;;;;;;;;2088745;28;46891;-50
2023/07/11 01:26:11;;;;;;;;;4.40;4.40;;;;;;;;2088990;28;46484;-50
2023/07/11 01:27:12;;;;;;;;;4.60;4.60;;;;;;;;2086395;28;46676;-49
2023/07/11 01:28:13;;;;;;;;;2.75;2.75;;;;;;;;2089153;28;46845;-49
2023/07/11 01:29:13;;;;;;;;;7.25;6.00;;;;;;;;2089690;28;46170;-51
2023/07/11 01:30:15;;;;;;;;;4.00;4.00;;;;;;;;2087608;28;46840;-52
2023/07/11 01:31:15;;;;;;;;;3.80;2.80;;;;;;;;2089577;28;47433;-51
2023/07/11 01:32:16;;;;;;;;;3.00;3.00;;;;;;;;2088795;28;46636;-51
2023/07/11 01:33:16;;;;;;;;;2.80;1.80;;;;;;;;2089242;28;46434;-52
2023/07/11 01:34:16;;;;;;;;;4.25;4.25;;;;;;;;2089226;28;46205;-51
2023/07/11 01:35:17;;;;;;;;;3.75;3.75;;;;;;;;2089232;28;46682;-51
2023/07/11 01:36:17;;;;;;;;;3.50;3.50;;;;;;;;2088721;28;46792;-50
2023/07/11 01:37:17;;;;;;;;;4.50;3.75;;;;;;;;2089333;28;46545;-50
2023/07/11 01:38:18;;;;;;;;;3.00;3.00;;;;;;;;2087251;28;46790;-48
2023/07/11 01:39:18;;;;;;;;;3.00;3.00;;;;;;;;2088155;28;46329;-48
2023/07/11 01:40:18;;;;;;;;;3.50;3.50;;;;;;;;2088661;28;45867;-47
2023/07/11 01:41:19;;;;;;;;;3.75;3.25;;;;;;;;2089353;28;46467;-51
2023/07/11 01:42:19;;;;;;;;;4.25;4.25;;;;;;;;2087759;28;46226;-49
2023/07/11 01:43:19;;;;;;;;;4.00;4.00;;;;;;;;2089791;28;45888;-48
2023/07/11 01:44:21;;;;;;;;;5.25;3.75;;;;;;;;2089731;28;46943;-50
2023/07/11 01:45:21;;;;;;;;;3.20;2.00;;;;;;;;2089017;28;46239;-48
2023/07/11 01:46:21;;;;;;;;;2.50;2.00;;;;;;;;2089038;28;46810;-50
2023/07/11 01:47:22;;;;;;;;;4.50;4.00;;;;;;;;2088994;28;46875;-48
2023/07/11 01:48:22;;;;;;;;;5.00;4.75;;;;;;;;2089498;28;46559;-51
2023/07/11 01:49:22;;;;;;;;;2.00;2.00;;;;;;;;2089053;28;46785;-48
2023/07/11 01:50:22;;;;;;;;;4.00;4.00;;;;;;;;2088950;28;46911;-48
2023/07/11 01:51:22;;;;;;;;;2.00;2.00;;;;;;;;2088143;28;46462;-48
2023/07/11 01:52:23;;;;;;;;;2.75;2.75;;;;;;;;2087676;28;46296;-49
2023/07/11 01:53:23;;;;;;;;;1.50;1.50;;;;;;;;2087834;28;46385;-49
2023/07/11 01:54:24;;;;;;;;;4.00;4.00;;;;;;;;2088635;28;46173;-48
2023/07/11 01:55:24;;;;;;;;;2.75;2.75;;;;;;;;2088721;28;46819;-48
2023/07/11 01:56:24;;;;;;;;;2.25;2.25;;;;;;;;2089000;28;45099;-48
2023/07/11 01:57:24;;;;;;;;;2.00;2.00;;;;;;;;2089218;28;45478;-48
2023/07/11 01:58:24;;;;;;;;;2.75;2.75;;;;;;;;2088042;28;46407;-47
2023/07/11 01:59:25;;;;;;;;;2.25;2.25;;;;;;;;2088714;28;46370;-48
2023/07/11 02:00:26;;;;;;;;;3.80;3.80;;;;;;;;2087312;28;46474;-50
2023/07/11 02:01:26;;;;;;;;;3.00;3.00;;;;;;;;2088634;28;46219;-48
2023/07/11 02:02:26;;;;;;;;;2.75;2.75;;;;;;;;2089211;28;46322;-50
2023/07/11 02:03:26;;;;;;;;;3.00;3.00;;;;;;;;2088776;28;48232;-50
2023/07/11 02:04:27;;;;;;;;;4.00;4.00;;;;;;;;2088677;28;46436;-50
2023/07/11 02:05:27;;;;;;;;;3.00;3.00;;;;;;;;2088817;28;46253;-50
2023/07/11 02:06:28;;;;;;;;;3.25;3.00;;;;;;;;2088930;28;46895;-48
2023/07/11 02:07:28;;;;;;;;;5.00;3.80;;;;;;;;2089124;28;46706;-50
2023/07/11 02:08:28;;;;;;;;;3.50;3.50;;;;;;;;2088172;28;46163;-52
2023/07/11 02:09:29;;;;;;;;;3.00;3.00;;;;;;;;2089285;28;44985;-48
2023/07/11 02:10:29;;;;;;;;;2.00;2.00;;;;;;;;2104223;28;46754;-46
2023/07/11 02:11:29;;;;;;;;;4.25;3.25;;;;;;;;2104578;28;46403;-49
2023/07/11 02:12:29;;;;;;;;;2.25;2.00;;;;;;;;2104703;28;46512;-47
2023/07/11 02:13:29;;;;;;;;;3.00;3.00;;;;;;;;2103929;28;47111;-47
2023/07/11 02:14:30;;;;;;;;;2.00;2.00;;;;;;;;2104449;28;46360;-46
2023/07/11 02:15:30;;;;;;;;;2.75;1.75;;;;;;;;2104567;28;46783;-48
2023/07/11 02:16:30;;;;;;;;;2.00;2.00;;;;;;;;2105011;28;46282;-48
2023/07/11 02:17:30;;;;;;;;;1.50;1.50;;;;;;;;2104938;28;46512;-48
2023/07/11 02:18:30;;;;;;;;;3.25;3.25;;;;;;;;2104395;28;47288;-47
2023/07/11 02:19:30;;;;;;;;;4.75;3.00;;;;;;;;2104015;28;46332;-45
2023/07/11 02:20:31;;;;;;;;;2.75;2.75;;;;;;;;2098754;28;46890;-49
2023/07/11 02:21:31;;;;;;;;;3.00;3.00;;;;;;;;2099013;28;45266;-47
2023/07/11 02:22:31;;;;;;;;;2.50;2.50;;;;;;;;2104617;28;46564;-50
2023/07/11 02:23:31;;;;;;;;;4.00;2.75;;;;;;;;2096227;28;46811;-48
2023/07/11 02:24:31;;;;;;;;;2.00;2.00;;;;;;;;2103331;28;46260;-49
2023/07/11 02:25:32;;;;;;;;;2.50;2.50;;;;;;;;2104658;28;46902;-46
2023/07/11 02:26:32;;;;;;;;;2.00;2.00;;;;;;;;2104197;28;46560;-50
2023/07/11 02:27:32;;;;;;;;;2.50;2.00;;;;;;;;2104467;28;46511;-46
2023/07/11 02:28:32;;;;;;;;;3.00;3.00;;;;;;;;2103420;28;46744;-46
2023/07/11 02:29:33;;;;;;;;;2.25;2.25;;;;;;;;2104243;28;46400;-46
2023/07/11 02:30:33;;;;;;;;;2.00;2.00;;;;;;;;2104251;28;45673;-48
2023/07/11 02:31:34;;;;;;;;;1.00;1.00;;;;;;;;2103924;28;45750;-50
2023/07/11 02:32:35;;;;;;;;;4.40;3.60;;;;;;;;2104598;28;46486;-47
2023/07/11 02:33:35;;;;;;;;;2.50;2.50;;;;;;;;2104332;28;46905;-50
2023/07/11 02:34:35;;;;;;;;;3.25;3.25;;;;;;;;2104534;28;46539;-48
2023/07/11 02:35:35;;;;;;;;;2.25;2.25;;;;;;;;2104967;28;46027;-48
2023/07/11 02:36:35;;;;;;;;;2.50;2.00;;;;;;;;2104187;28;46766;-48
2023/07/11 02:37:36;;;;;;;;;2.00;2.00;;;;;;;;2104786;28;45493;-50
2023/07/11 02:38:36;;;;;;;;;3.00;2.75;;;;;;;;2104694;28;46304;-47
2023/07/11 02:39:36;;;;;;;;;3.00;2.25;;;;;;;;2095877;28;46349;-51
2023/07/11 02:40:36;;;;;;;;;2.00;2.00;;;;;;;;2095868;28;46733;-47
2023/07/11 02:41:36;;;;;;;;;3.25;3.25;;;;;;;;2104466;28;46457;-47
2023/07/11 02:42:36;;;;;;;;;5.00;3.25;;;;;;;;2090045;28;46731;-46
2023/07/11 02:43:37;;;;;;;;;3.25;3.25;;;;;;;;2088701;28;46361;-47
2023/07/11 02:44:37;;;;;;;;;3.50;3.50;;;;;;;;2088238;28;46955;-48
2023/07/11 02:45:37;;;;;;;;;2.75;2.75;;;;;;;;2088864;28;46549;-47
2023/07/11 02:46:37;;;;;;;;;4.25;4.25;;;;;;;;2087185;28;47102;-51
2023/07/11 02:47:38;;;;;;;;;4.25;4.25;;;;;;;;2088603;28;46223;-48
2023/07/11 02:48:38;;;;;;;;;4.75;4.75;;;;;;;;2088048;28;46610;-49
2023/07/11 02:49:40;;;;;;;;;5.75;5.00;;;;;;;;2088551;28;46182;-48
2023/07/11 02:50:41;;;;;;;;;3.00;3.00;;;;;;;;2088498;28;46813;-52
2023/07/11 02:51:41;;;;;;;;;2.00;2.00;;;;;;;;2089059;28;45605;-48
2023/07/11 02:52:41;;;;;;;;;4.00;4.00;;;;;;;;2088087;28;46583;-52
2023/07/11 02:53:41;;;;;;;;;3.75;3.75;;;;;;;;2083854;28;46702;-49
2023/07/11 02:54:41;;;;;;;;;3.00;3.00;;;;;;;;2081703;28;46280;-48
2023/07/11 02:55:42;;;;;;;;;3.50;3.50;;;;;;;;2083983;28;46645;-52
2023/07/11 02:56:42;;;;;;;;;4.75;4.75;;;;;;;;2088923;28;45464;-52
2023/07/11 02:57:43;;;;;;;;;3.00;3.00;;;;;;;;2088809;28;46462;-51
2023/07/11 02:58:44;;;;;;;;;4.60;4.60;;;;;;;;2089152;28;45505;-50
2023/07/11 02:59:44;;;;;;;;;2.25;2.25;;;;;;;;2087913;28;46294;-49
2023/07/11 03:00:53;;;;;;;;;5.00;4.00;;;;;;;;2087896;28;46564;-49
2023/07/11 03:01:53;;;;;;;;;3.00;3.00;;;;;;;;2088215;28;46284;-54
2023/07/11 03:02:53;;;;;;;;;4.00;4.00;;;;;;;;2089089;28;46504;-50
2023/07/11 03:03:54;;;;;;;;;3.25;3.25;;;;;;;;2088684;28;46414;-47
2023/07/11 03:04:54;;;;;;;;;3.25;3.25;;;;;;;;2094986;28;46389;-51
2023/07/11 03:05:55;;;;;;;;;5.75;5.75;;;;;;;;2096501;28;45561;-46
2023/07/11 03:06:58;;;;;;;;;1.75;1.75;;;;;;;;2088312;28;46291;-47
2023/07/11 03:07:58;;;;;;;;;4.80;3.40;;;;;;;;2095243;28;46615;-47
2023/07/11 03:08:58;;;;;;;;;3.25;3.25;;;;;;;;2095888;28;46702;-49
2023/07/11 03:09:59;;;;;;;;;5.00;4.00;;;;;;;;2088414;28;46709;-46
2023/07/11 03:11:00;;;;;;;;;4.00;4.00;;;;;;;;2088485;28;46286;-50
2023/07/11 03:12:00;;;;;;;;;4.25;3.25;;;;;;;;2088200;28;46281;-47
2023/07/11 03:13:00;;;;;;;;;5.75;4.50;;;;;;;;2087973;28;46364;-50
2023/07/11 03:14:01;;;;;;;;;3.75;3.75;;;;;;;;2088167;28;45155;-49
2023/07/11 03:15:01;;;;;;;;;3.50;3.50;;;;;;;;2088260;28;46578;-46
2023/07/11 03:16:02;;;;;;;;;1.50;1.25;;;;;;;;2087901;28;46299;-50
2023/07/11 03:17:02;;;;;;;;;4.00;4.00;;;;;;;;2088392;28;47152;-47
2023/07/11 03:18:03;;;;;;;;;4.00;3.00;;;;;;;;2088179;28;46487;-50
2023/07/11 03:19:03;;;;;;;;;3.00;3.00;;;;;;;;2088507;28;44986;-47
2023/07/11 03:20:03;;;;;;;;;3.75;3.00;;;;;;;;2086994;28;46834;-52
2023/07/11 03:21:03;;;;;;;;;3.75;3.75;;;;;;;;2088427;28;46622;-50
2023/07/11 03:22:03;;;;;;;;;3.75;3.75;;;;;;;;2088620;28;45567;-52
2023/07/11 03:23:04;;;;;;;;;2.75;2.75;;;;;;;;2088383;28;45685;-51
2023/07/11 03:24:04;;;;;;;;;4.00;2.75;;;;;;;;2088357;28;46293;-48
2023/07/11 03:25:05;;;;;;;;;4.00;3.00;;;;;;;;2089265;28;45689;-48
2023/07/11 03:26:05;;;;;;;;;2.00;2.00;;;;;;;;2088682;28;46911;-49
2023/07/11 03:27:05;;;;;;;;;6.50;5.00;;;;;;;;2088941;28;46633;-49
2023/07/11 03:28:05;;;;;;;;;2.75;2.75;;;;;;;;2087186;28;46949;-50
2023/07/11 03:29:05;;;;;;;;;6.25;3.50;;;;;;;;2088649;28;46653;-49
2023/07/11 03:30:06;;;;;;;;;3.00;3.00;;;;;;;;2087990;28;46488;-48
2023/07/11 03:31:06;;;;;;;;;3.25;2.50;;;;;;;;2088540;28;46721;-51
2023/07/11 03:32:09;;;;;;;;;2.50;2.50;;;;;;;;2095138;28;46487;-47
2023/07/11 03:33:09;;;;;;;;;4.40;3.00;;;;;;;;2095165;28;46659;-49
2023/07/11 03:34:09;;;;;;;;;2.33;2.33;;;;;;;;2088432;28;45499;-49
2023/07/11 03:35:09;;;;;;;;;2.33;2.33;;;;;;;;2088068;28;46789;-49
2023/07/11 03:36:09;;;;;;;;;3.75;2.75;;;;;;;;2088492;28;46307;-48
2023/07/11 03:37:10;;;;;;;;;2.25;2.25;;;;;;;;2087636;28;46708;-47
2023/07/11 03:38:10;;;;;;;;;4.25;4.25;;;;;;;;2087021;28;46298;-49
2023/07/11 03:39:10;;;;;;;;;4.00;4.00;;;;;;;;2088210;28;45703;-47
2023/07/11 03:40:10;;;;;;;;;3.25;3.00;;;;;;;;2088364;28;45732;-51
2023/07/11 03:41:11;;;;;;;;;3.75;3.25;;;;;;;;2095635;28;47288;-46
2023/07/11 03:42:11;;;;;;;;;3.00;3.00;;;;;;;;2096305;28;46038;-49
2023/07/11 03:43:11;;;;;;;;;4.00;4.00;;;;;;;;2087746;28;46864;-46
2023/07/11 03:44:11;;;;;;;;;3.00;3.00;;;;;;;;2088005;28;46514;-50
2023/07/11 03:45:11;;;;;;;;;4.00;3.67;;;;;;;;2088942;28;46848;-49
2023/07/11 03:46:12;;;;;;;;;3.67;3.67;;;;;;;;2088358;28;45505;-47
2023/07/11 03:47:12;;;;;;;;;4.75;4.75;;;;;;;;2087352;28;46498;-52
2023/07/11 03:48:15;;;;;;;;;4.00;3.67;;;;;;;;2088770;28;46456;-48
2023/07/11 03:49:15;;;;;;;;;2.50;2.50;;;;;;;;2088197;28;46848;-50
2023/07/11 03:50:15;;;;;;;;;3.00;3.00;;;;;;;;2088597;28;45653;-46
2023/07/11 03:51:16;;;;;;;;;5.33;4.67;;;;;;;;2088412;28;45942;-49
2023/07/11 03:52:16;;;;;;;;;5.33;4.00;;;;;;;;2087088;28;46320;-48
2023/07/11 03:53:16;;;;;;;;;4.00;3.33;;;;;;;;2088320;28;45150;-48
2023/07/11 03:54:17;;;;;;;;;3.50;3.50;;;;;;;;2087923;28;46562;-52
2023/07/11 03:55:17;;;;;;;;;4.75;4.75;;;;;;;;2088433;28;46730;-51
2023/07/11 03:56:17;;;;;;;;;3.00;3.00;;;;;;;;2088184;28;45967;-50
2023/07/11 03:57:17;;;;;;;;;3.00;3.00;;;;;;;;2088393;28;46657;-47
2023/07/11 03:58:18;;;;;;;;;4.67;4.33;;;;;;;;2095677;28;46801;-52
2023/07/11 03:59:18;;;;;;;;;1.50;1.50;;;;;;;;2095443;28;46242;-51
2023/07/11 04:00:19;;;;;;;;;4.00;4.00;;;;;;;;2087665;28;45711;-53
2023/07/11 04:01:19;;;;;;;;;5.75;4.25;;;;;;;;2088481;28;46359;-49
2023/07/11 04:02:19;;;;;;;;;3.50;3.25;;;;;;;;2094968;28;46697;-49
2023/07/11 04:03:19;;;;;;;;;4.00;3.00;;;;;;;;2095515;28;45992;-52
2023/07/11 04:04:19;;;;;;;;;3.50;3.00;;;;;;;;2095801;28;46149;-53
2023/07/11 04:05:20;;;;;;;;;3.00;3.00;;;;;;;;2095465;28;46331;-50
2023/07/11 04:06:20;;;;;;;;;5.25;5.25;;;;;;;;2095468;28;46862;-47
2023/07/11 04:07:20;;;;;;;;;2.50;2.50;;;;;;;;2095048;28;46649;-49
2023/07/11 04:08:20;;;;;;;;;4.50;4.50;;;;;;;;2094246;28;46471;-49
2023/07/11 04:09:20;;;;;;;;;5.00;5.00;;;;;;;;2095230;28;47711;-48
2023/07/11 04:10:21;;;;;;;;;1.75;1.75;;;;;;;;2095505;28;46222;-49
2023/07/11 04:11:21;;;;;;;;;2.75;2.75;;;;;;;;2095602;28;46988;-47
2023/07/11 04:12:21;;;;;;;;;4.00;4.00;;;;;;;;2095345;28;46705;-49
2023/07/11 04:13:22;;;;;;;;;5.50;5.00;;;;;;;;2095563;28;46650;-48
2023/07/11 04:14:22;;;;;;;;;4.50;4.50;;;;;;;;2095770;28;45920;-49
2023/07/11 04:15:22;;;;;;;;;5.00;5.00;;;;;;;;2095396;28;46273;-48
2023/07/11 04:16:22;;;;;;;;;5.00;5.00;;;;;;;;2094778;28;46367;-49
2023/07/11 04:17:22;;;;;;;;;4.25;4.25;;;;;;;;2095424;28;46264;-48
2023/07/11 04:18:23;;;;;;;;;3.50;3.50;;;;;;;;2094964;28;46281;-51
2023/07/11 04:19:23;;;;;;;;;6.25;5.25;;;;;;;;2095763;28;46512;-48
2023/07/11 04:20:23;;;;;;;;;4.25;4.00;;;;;;;;2095907;28;46312;-51
2023/07/11 04:21:24;;;;;;;;;4.25;4.25;;;;;;;;2095669;28;45064;-49
2023/07/11 04:22:24;;;;;;;;;5.00;4.50;;;;;;;;2095629;28;46494;-47
2023/07/11 04:23:24;;;;;;;;;5.75;5.75;;;;;;;;2095356;28;45163;-50
2023/07/11 04:24:24;;;;;;;;;3.75;3.50;;;;;;;;2096147;28;45641;-49
2023/07/11 04:25:24;;;;;;;;;6.00;6.00;;;;;;;;2094543;28;46309;-51
2023/07/11 04:26:24;;;;;;;;;6.25;3.75;;;;;;;;2093779;28;46953;-49
2023/07/11 04:27:25;;;;;;;;;4.00;4.00;;;;;;;;2095523;28;46475;-48
2023/07/11 04:28:25;;;;;;;;;6.00;5.00;;;;;;;;2095328;28;46472;-50
2023/07/11 04:29:25;;;;;;;;;5.75;5.00;;;;;;;;2095061;28;46569;-48
2023/07/11 04:30:25;;;;;;;;;6.00;6.00;;;;;;;;2095761;28;46712;-53
2023/07/11 04:31:26;;;;;;;;;4.25;4.25;;;;;;;;2094866;28;46064;-49
2023/07/11 04:32:27;;;;;;;;;4.50;4.50;;;;;;;;2095383;28;46646;-48
2023/07/11 04:33:27;;;;;;;;;5.00;5.00;;;;;;;;2095208;28;46413;-52
2023/07/11 04:34:27;;;;;;;;;4.25;3.25;;;;;;;;2088608;28;46468;-47
2023/07/11 04:35:28;;;;;;;;;4.00;4.00;;;;;;;;2087511;28;46921;-48
2023/07/11 04:36:28;;;;;;;;;4.00;4.00;;;;;;;;2088393;28;46353;-49
2023/07/11 04:37:28;;;;;;;;;4.50;3.75;;;;;;;;2087692;28;46248;-52
2023/07/11 04:38:28;;;;;;;;;5.00;4.50;;;;;;;;2088604;28;46830;-50
2023/07/11 04:39:28;;;;;;;;;4.00;4.00;;;;;;;;2088110;28;46362;-50
2023/07/11 04:40:28;;;;;;;;;4.00;4.00;;;;;;;;2088014;28;46442;-49
2023/07/11 04:41:29;;;;;;;;;4.50;4.50;;;;;;;;2087909;28;46002;-51
2023/07/11 04:42:29;;;;;;;;;3.50;3.50;;;;;;;;2087180;28;46581;-53
2023/07/11 04:43:29;;;;;;;;;3.00;3.00;;;;;;;;2087638;28;46454;-50
2023/07/11 04:44:30;;;;;;;;;4.50;4.50;;;;;;;;2088033;28;45007;-55
2023/07/11 04:45:30;;;;;;;;;4.00;4.00;;;;;;;;2087657;28;46679;-54
2023/07/11 04:46:30;;;;;;;;;3.00;3.00;;;;;;;;2087398;28;46764;-56
2023/07/11 04:47:30;;;;;;;;;5.25;5.25;;;;;;;;2088161;28;46578;-54
2023/07/11 04:48:31;;;;;;;;;5.00;4.25;;;;;;;;2088005;28;46789;-52
2023/07/11 04:49:31;;;;;;;;;6.25;6.00;;;;;;;;2088382;28;46576;-49
2023/07/11 04:50:32;;;;;;;;;5.00;5.00;;;;;;;;2087745;28;46810;-50
2023/07/11 04:51:32;;;;;;;;;3.00;2.00;;;;;;;;2085931;28;46567;-56
2023/07/11 04:52:32;;;;;;;;;4.00;4.00;;;;;;;;2081443;28;46709;-51
2023/07/11 04:53:33;;;;;;;;;4.25;4.25;;;;;;;;2087554;28;46991;-58
2023/07/11 04:54:33;;;;;;;;;4.00;4.00;;;;;;;;2087921;28;46950;-53
2023/07/11 04:55:33;;;;;;;;;7.50;6.00;;;;;;;;2087617;28;46392;-55
2023/07/11 04:56:37;;;;;;;;;5.00;5.00;;;;;;;;2087651;28;46762;-51
2023/07/11 04:57:37;;;;;;;;;5.80;5.80;;;;;;;;2086493;28;46815;-57
2023/07/11 04:58:38;;;;;;;;;5.00;5.00;;;;;;;;2086886;28;45678;-52
2023/07/11 04:59:38;;;;;;;;;6.25;6.25;;;;;;;;2088245;28;45546;-57
2023/07/11 05:00:38;;;;;;;;;5.25;5.00;;;;;;;;2085982;28;46188;-52
2023/07/11 05:01:38;;;;;;;;;5.25;5.25;;;;;;;;2087652;28;46448;-54
2023/07/11 05:02:38;;;;;;;;;3.50;3.50;;;;;;;;2087975;28;48054;-52
2023/07/11 05:03:39;;;;;;;;;5.50;5.50;;;;;;;;2088461;28;46912;-52
2023/07/11 05:04:39;;;;;;;;;4.75;4.75;;;;;;;;2087260;28;46713;-55
2023/07/11 05:05:39;;;;;;;;;3.00;3.00;;;;;;;;2087150;28;46407;-52
2023/07/11 05:06:40;;;;;;;;;4.50;4.50;;;;;;;;2087888;28;46410;-57
2023/07/11 05:07:40;;;;;;;;;6.00;5.50;;;;;;;;2087632;28;46879;-50
2023/07/11 05:08:41;;;;;;;;;4.75;3.75;;;;;;;;2087401;28;46861;-56
2023/07/11 05:09:41;;;;;;;;;4.25;4.25;;;;;;;;2085767;28;46430;-53
2023/07/11 05:10:50;;;;;;;;;4.75;4.75;;;;;;;;2087663;28;46706;-56
2023/07/11 05:11:50;;;;;;;;;5.20;5.20;;;;;;;;2086064;28;47109;-56
2023/07/11 05:12:50;;;;;;;;;5.00;5.00;;;;;;;;2087082;28;45150;-55
2023/07/11 05:13:51;;;;;;;;;7.00;6.00;;;;;;;;2086938;28;45406;-52
2023/07/11 05:14:51;;;;;;;;;5.50;5.50;;;;;;;;2076682;28;46538;-56
2023/07/11 05:15:51;;;;;;;;;5.75;5.75;;;;;;;;2078848;28;46585;-55
2023/07/11 05:16:51;;;;;;;;;3.00;3.00;;;;;;;;2087631;28;46742;-55
2023/07/11 05:17:52;;;;;;;;;4.25;4.00;;;;;;;;2086670;28;46422;-53
2023/07/11 05:18:52;;;;;;;;;4.75;4.75;;;;;;;;2086634;28;46908;-56
2023/07/11 05:19:52;;;;;;;;;5.25;3.25;;;;;;;;2086635;28;46591;-54
2023/07/11 05:20:53;;;;;;;;;3.00;3.00;;;;;;;;2086997;28;46850;-52
2023/07/11 05:21:54;;;;;;;;;5.80;5.80;;;;;;;;2087228;28;45903;-54
2023/07/11 05:22:54;;;;;;;;;4.25;4.00;;;;;;;;2087115;28;46098;-51
2023/07/11 05:23:55;;;;;;;;;7.00;4.25;;;;;;;;2089436;28;46469;-57
2023/07/11 05:24:55;;;;;;;;;4.00;4.00;;;;;;;;2095153;28;46430;-52
2023/07/11 05:25:56;;;;;;;;;3.00;3.00;;;;;;;;2077913;28;47135;-55
2023/07/11 05:26:56;;;;;;;;;7.00;4.00;;;;;;;;2078359;28;46368;-51
2023/07/11 05:27:56;;;;;;;;;6.50;5.50;;;;;;;;2086821;28;47060;-57
2023/07/11 05:28:57;;;;;;;;;5.75;5.75;;;;;;;;2086084;28;46466;-53
2023/07/11 05:29:57;;;;;;;;;4.50;3.75;;;;;;;;2087116;28;46046;-55
2023/07/11 05:30:59;;;;;;;;;5.50;4.50;;;;;;;;2086415;28;46775;-53
2023/07/11 05:31:59;;;;;;;;;7.20;6.40;;;;;;;;2088412;28;46578;-54
2023/07/11 05:33:00;;;;;;;;;6.00;5.50;;;;;;;;2085382;28;46367;-55
2023/07/11 05:34:00;;;;;;;;;5.00;4.50;;;;;;;;2086447;28;45607;-50
2023/07/11 05:35:00;;;;;;;;;6.00;6.00;;;;;;;;2086824;28;46755;-57
2023/07/11 05:37:23;;;;;;;;;5.60;5.60;;;;;;;;2061622;28;46241;-52
2023/07/11 05:38:24;;;;;;;;;5.20;5.20;;;;;;;;2070774;28;46644;-56
2023/07/11 05:39:24;;;;;;;;;8.50;7.00;;;;;;;;2087179;28;45832;-50
2023/07/11 05:40:24;;;;;;;;;8.00;6.50;;;;;;;;2086729;28;46405;-55
2023/07/11 05:41:24;;;;;;;;;5.00;5.00;;;;;;;;2086203;28;45946;-54
2023/07/11 05:42:24;;;;;;;;;5.00;5.00;;;;;;;;2086604;28;46831;-53
2023/07/11 05:43:25;;;;;;;;;5.25;5.25;;;;;;;;2087049;28;45400;-59
2023/07/11 05:44:25;;;;;;;;;5.00;5.00;;;;;;;;2087792;28;46212;-53
2023/07/11 05:45:25;;;;;;;;;5.25;5.25;;;;;;;;2088157;28;46916;-56
2023/07/11 05:46:26;;;;;;;;;7.75;7.25;;;;;;;;2088510;28;46648;-50
2023/07/11 05:47:26;;;;;;;;;10.00;9.00;;;;;;;;2085751;28;46504;-54
2023/07/11 05:48:26;;;;;;;;;4.00;4.00;;;;;;;;2087813;28;47079;-54
2023/07/11 05:49:26;;;;;;;;;5.25;5.25;;;;;;;;2087315;28;45737;-54
2023/07/11 05:50:27;;;;;;;;;6.00;5.00;;;;;;;;2088496;28;46390;-57
2023/07/11 05:51:27;;;;;;;;;4.75;4.75;;;;;;;;2089187;28;46916;-53
2023/07/11 05:52:27;;;;;;;;;5.00;5.00;;;;;;;;2088919;28;46732;-56
2023/07/11 05:53:28;;;;;;;;;5.25;5.25;;;;;;;;2089268;28;46862;-53
2023/07/11 05:54:29;;;;;;;;;6.80;6.80;;;;;;;;2089429;28;46776;-55
2023/07/11 05:55:29;;;;;;;;;7.00;6.00;;;;;;;;2088577;28;46092;-56
2023/07/11 05:56:29;;;;;;;;;5.75;5.75;;;;;;;;2088714;28;46334;-52
2023/07/11 05:57:29;;;;;;;;;5.00;5.00;;;;;;;;2096194;28;46384;-56
2023/07/11 05:58:33;;;;;;;;;4.25;3.50;;;;;;;;2095978;28;46865;-50
2023/07/11 05:59:33;;;;;;;;;3.00;3.00;;;;;;;;2096025;28;46109;-56
2023/07/11 06:00:34;;;;;;;;;4.50;4.50;;;;;;;;2087681;28;46853;-53
2023/07/11 06:01:34;;;;;;;;;5.50;4.00;;;;;;;;2087744;28;45489;-57
2023/07/11 06:02:35;;;;;;;;;4.50;4.50;;;;;;;;2095444;28;46512;-51
2023/07/11 06:03:35;;;;;;;;;3.00;3.00;;;;;;;;2096353;28;46726;-55
2023/07/11 06:04:35;;;;;;;;;3.50;3.50;;;;;;;;2096275;28;46504;-54